EUFO2: Eufaula Lake

Data processed at Mon Jul 16 2018 23:09


All information presented herein is the property of the government of the United States of America and may be revised or deleted at any time without prior notice.
Dissemination of this information without the expressed written consent of the Public Affairs Office, Tulsa District U.S. Army Corps of Engineers is strictly prohibited.
These data are gathered electronically and, as presented, have not undergone any form of quality control. These data are not guaranteed to be valid or correct.
Go to home page.
Go to station list.

Upstream stations:

Downstream station:
Previous Day
Next Day
Current Day
    
SHEF ID:       EUFO2     Eufaula Lake
STATION TYPE:  RESERVOIR
Normal Pool:  Bottom =   565.00, Top =   585.00

               PRECIP ELEVATION   STORAGE   TW-ELEV    INFLOW   RELEASE  AIR-TEMP  WIND-DIRWIND-SPEED REL-HUMID SOLAR-RAD   VOLTAGE  BAT-LOAD
                   in        ft     ac-ft        ft       cfs       cfs         F       deg       mph         %      W/m2      volt      volt
              Ccp-Rev   Ccp-Rev   Ccp-Rev   Ccp-Rev  Regi-Rev  Regi-Rev   Ccp-Rev   Ccp-Rev   Ccp-Rev   Ccp-Rev   Ccp-Rev   Ccp-Rev   Ccp-Rev
(US/Central)
07/14 00:00      0.00    586.33   2321332    484.01         3        31     83.84    111.60      2.32     62.52      0.00     13.82     13.59
07/14 01:00      0.00    586.33   2321332    483.67         4        31     81.63    111.70      1.85     68.92      0.00     13.82     13.59
07/14 02:00      0.00    586.33   2321332    483.41         5        31     76.80    119.70      2.14     84.54      0.00     13.82     13.59
07/14 03:00      0.00    586.33   2321332    483.20         6        31     75.60    113.90      2.19     88.69      0.00     13.82     13.59
07/14 04:00      0.00    586.33   2321332    483.05         6        31     76.91    109.80      1.74     83.26      0.00     13.82     13.59
07/14 05:00      0.00    586.33   2321332    482.94       821        31     76.14    117.80      2.02     83.93      0.00     13.82     13.59
07/14 06:00      0.00    586.33   2321332    482.86      1636        31     80.87    116.20      2.88     69.22      0.00     13.81     13.59
07/14 07:00      0.00    586.34   2322299    482.81      1908        31     78.12    132.80      1.47     76.97     12.00     13.81     13.59
07/14 08:00      0.00    586.35   2323266    482.77      2180        31     81.75    145.20      2.70     65.75     42.00     13.81     13.59
07/14 09:00      0.00    586.35   2323266    482.75      2452        31     85.59    179.00      3.70     60.92     70.00     13.81     13.59
07/14 10:00      0.00    586.37   2325200    482.74      1638        31     86.25    235.70      3.25     60.74    224.00     13.81     13.59
07/14 11:00      0.00    586.36   2324233    482.73       822        31     88.00    193.60      1.23     55.98    515.00     13.81     13.59
07/14 12:00      0.00    586.36   2324233    482.72       549        31     90.66    175.20      2.65     47.62    801.00     13.81     13.59
07/14 13:00      0.00    586.34   2322299    483.72       301       485     92.30    164.40      5.02     45.17    928.00     13.81     13.59
07/14 14:00      0.00    586.32   2320365    486.71        60      8156     93.40    208.10      3.82     40.54    510.00     13.81     13.59
07/14 15:00      0.00    586.31   2319398    488.60        84     12070     93.74    164.00      5.06     38.52    713.00     13.81     13.59
07/14 16:00      0.00    586.30   2318431    488.94       111     12160     93.72    161.40      4.85     40.53    743.00     13.81     13.59
07/14 17:00      0.00    586.28   2316497    489.12       303     12160     94.39    161.60      5.00     38.58    489.00     13.82     13.59
07/14 18:00      0.00    586.28   2316497    488.79       469     12012     94.82    177.40      5.28     37.30    399.00     13.82     13.59
07/14 19:00      0.00    586.29   2317464    487.39       629      4240     94.84    178.50      4.17     37.30    349.00     13.82     13.59
07/14 20:00      0.00    586.28   2316497    486.72       605      4010     92.95    159.60      3.23     40.78    169.00     13.82     13.59
07/14 21:00      0.00    586.28   2316497    485.65       580        31     89.65    140.90      1.35     48.35     17.00     13.82     13.59
07/14 22:00      0.00    586.28   2316497    484.86       388        31     87.46    122.30      1.09     52.68      0.00     13.82     13.59
07/14 23:00      0.00    586.28   2316497    484.31       198        31     85.91    137.50      1.56     53.96      0.00     13.82     13.59